Time,TemperatureF,DewpointF,PressureIn,WindDirection,WindDirectionDegrees,WindSpeedMPH,WindSpeedGustMPH,Humidity,HourlyPrecipIn,Conditions,Clouds,dailyrainin,SolarRadiationWatts/m^2,SoftwareType,DateUTC
2013-03-28 11:52:00,54.0,-37.0,-100.00,ENE,70,7.0,14.0,0,-99.99,,,0.00,644.000000,,2013-03-28 18:52:00,
2013-03-28 12:02:00,54.0,-99.9,-100.00,ENE,70,7.0,14.0,0,-99.99,,,0.00,644.000000,,2013-03-28 19:02:00,
2013-03-28 12:03:00,56.0,-99.9,-100.00,NE,44,9.0,17.0,0,0.00,,,0.00,913.000000,,2013-03-28 19:03:00,
2013-03-28 12:33:00,56.0,-36.0,-100.00,NE,44,9.0,17.0,0,0.00,,,0.00,913.000000,,2013-03-28 19:33:00,
2013-03-28 12:43:00,56.0,-99.9,-100.00,NE,44,9.0,17.0,0,0.00,,,0.00,913.000000,,2013-03-28 19:43:00,
2013-03-28 12:53:00,56.0,-99.9,-100.00,NE,44,9.0,17.0,0,0.00,,,0.00,913.000000,,2013-03-28 19:53:00,
2013-03-28 13:03:00,58.0,-99.9,-100.00,SE,134,7.0,19.0,0,0.00,,,0.00,1021.000000,,2013-03-28 20:03:00,
2013-03-28 13:33:00,58.0,-34.0,-100.00,SE,134,7.0,19.0,0,0.00,,,0.00,1021.000000,,2013-03-28 20:33:00,
2013-03-28 13:43:00,58.0,-99.9,-100.00,SE,134,7.0,19.0,0,0.00,,,0.00,1021.000000,,2013-03-28 20:43:00,
2013-03-28 13:53:00,58.0,-99.9,-100.00,SE,134,7.0,19.0,0,0.00,,,0.00,1021.000000,,2013-03-28 20:53:00,
2013-03-28 14:03:00,59.0,-99.9,-100.00,SSW,202,8.0,21.0,0,0.00,,,0.00,937.000000,,2013-03-28 21:03:00,
2013-03-28 14:33:00,59.0,-34.0,-100.00,SSW,202,8.0,21.0,0,0.00,,,0.00,937.000000,,2013-03-28 21:33:00,
2013-03-28 14:43:00,59.0,-99.9,-100.00,SSW,202,8.0,21.0,0,0.00,,,0.00,937.000000,,2013-03-28 21:43:00,
2013-03-28 14:53:00,59.0,-99.9,-100.00,SSW,202,8.0,21.0,0,0.00,,,0.00,937.000000,,2013-03-28 21:53:00,
2013-03-28 15:03:00,59.0,-99.9,-100.00,SSW,192,8.0,23.0,0,0.00,,,0.00,747.000000,,2013-03-28 22:03:00,
2013-03-28 15:32:00,59.0,-34.0,-100.00,SSW,192,8.0,23.0,0,0.00,,,0.00,747.000000,,2013-03-28 22:32:00,
2013-03-28 15:43:00,59.0,-99.9,-100.00,SSW,192,8.0,23.0,0,0.00,,,0.00,747.000000,,2013-03-28 22:43:00,
2013-03-28 15:53:00,59.0,-99.9,-100.00,SSW,192,8.0,23.0,0,0.00,,,0.00,747.000000,,2013-03-28 22:53:00,
2013-03-28 16:03:00,58.0,-99.9,-100.00,SSW,197,9.0,20.0,0,0.00,,,0.00,541.000000,,2013-03-28 23:03:00,
2013-03-28 16:32:00,58.0,-34.0,-100.00,SSW,197,9.0,20.0,0,0.00,,,0.00,541.000000,,2013-03-28 23:32:00,
2013-03-28 16:42:00,58.0,-99.9,-100.00,SSW,197,9.0,20.0,0,0.00,,,0.00,541.000000,,2013-03-28 23:42:00,
2013-03-28 16:53:00,58.0,-99.9,-100.00,SSW,197,9.0,20.0,0,0.00,,,0.00,541.000000,,2013-03-28 23:53:00,
2013-03-28 17:03:00,58.0,-99.9,-100.00,SSW,201,7.0,19.0,0,0.00,,,-99.99,325.000000,,2013-03-29 00:03:00,
2013-03-28 17:33:00,58.0,-34.0,-100.00,SSW,201,7.0,19.0,0,0.00,,,-99.99,325.000000,,2013-03-29 00:33:00,
2013-03-28 17:43:00,58.0,-99.9,-100.00,SSW,201,7.0,19.0,0,0.00,,,-99.99,325.000000,,2013-03-29 00:43:00,
2013-03-28 17:52:00,58.0,-99.9,-100.00,SSW,201,7.0,19.0,0,0.00,,,-99.99,325.000000,,2013-03-29 00:52:00,
2013-03-28 18:03:00,53.0,-99.9,-100.00,SSW,197,7.0,18.0,0,0.00,,,-99.99,113.000000,,2013-03-29 01:03:00,
2013-03-28 18:22:00,53.0,-38.0,-100.00,SSW,197,7.0,18.0,0,0.00,,,-99.99,113.000000,,2013-03-29 01:22:00,
2013-03-28 18:33:00,53.0,-38.0,-100.00,SSW,197,7.0,18.0,0,0.00,,,-99.99,113.000000,,2013-03-29 01:33:00,
2013-03-28 18:42:00,53.0,-99.9,-100.00,SSW,197,7.0,18.0,0,0.00,,,-99.99,113.000000,,2013-03-29 01:42:00,
2013-03-28 18:53:00,53.0,-99.9,-100.00,SSW,197,7.0,18.0,0,0.00,,,-99.99,113.000000,,2013-03-29 01:53:00,
2013-03-28 19:03:00,49.0,-99.9,-100.00,NNE,14,2.0,16.0,0,0.00,,,-99.99,28.000000,,2013-03-29 02:03:00,
2013-03-28 19:32:00,49.0,-40.0,-100.00,NNE,14,2.0,16.0,0,0.00,,,-99.99,28.000000,,2013-03-29 02:32:00,
2013-03-28 19:42:00,49.0,-99.9,-100.00,NNE,14,2.0,16.0,0,0.00,,,-99.99,28.000000,,2013-03-29 02:42:00,
2013-03-28 19:53:00,49.0,-99.9,-100.00,NNE,14,2.0,16.0,0,0.00,,,-99.99,28.000000,,2013-03-29 02:53:00,
2013-03-28 20:03:00,44.0,-99.9,-100.00,SSE,163,4.0,13.0,0,0.00,,,-99.99,0.000000,,2013-03-29 03:03:00,
2013-03-28 20:32:00,44.0,-43.0,-100.00,SSE,163,4.0,13.0,0,0.00,,,-99.99,0.000000,,2013-03-29 03:32:00,
2013-03-28 20:43:00,44.0,-99.9,-100.00,SSE,163,4.0,13.0,0,0.00,,,-99.99,0.000000,,2013-03-29 03:43:00,
2013-03-28 20:53:00,44.0,-99.9,-100.00,SSE,163,4.0,13.0,0,0.00,,,-99.99,0.000000,,2013-03-29 03:53:00,
2013-03-28 21:03:00,44.0,-99.9,-100.00,South,172,1.0,7.0,0,0.00,,,-99.99,0.000000,,2013-03-29 04:03:00,
2013-03-28 21:23:00,44.0,-43.0,-100.00,South,172,1.0,7.0,0,0.00,,,-99.99,0.000000,,2013-03-29 04:23:00,
2013-03-28 21:33:00,44.0,-43.0,-100.00,South,172,1.0,7.0,0,0.00,,,-99.99,0.000000,,2013-03-29 04:33:00,
2013-03-28 21:43:00,44.0,-99.9,-100.00,South,172,1.0,7.0,0,0.00,,,-99.99,0.000000,,2013-03-29 04:43:00,
2013-03-28 21:53:00,44.0,-99.9,-100.00,South,172,1.0,7.0,0,0.00,,,-99.99,0.000000,,2013-03-29 04:53:00,
2013-03-28 22:03:00,45.0,-99.9,-100.00,SSE,167,3.0,5.0,0,0.00,,,-99.99,0.000000,,2013-03-29 05:03:00,
2013-03-28 22:23:00,45.0,-43.0,-100.00,SSE,167,3.0,5.0,0,0.00,,,-99.99,0.000000,,2013-03-29 05:23:00,
2013-03-28 22:33:00,45.0,-43.0,-100.00,SSE,167,3.0,5.0,0,0.00,,,-99.99,0.000000,,2013-03-29 05:33:00,
2013-03-28 22:44:00,45.0,-99.9,-100.00,SSE,167,3.0,5.0,0,0.00,,,-99.99,0.000000,,2013-03-29 05:44:00,
2013-03-28 22:53:00,45.0,-99.9,-100.00,SSE,167,3.0,5.0,0,0.00,,,-99.99,0.000000,,2013-03-29 05:53:00,
2013-03-28 23:03:00,41.0,-99.9,-100.00,SE,142,0.0,7.0,0,0.00,,,-99.99,0.000000,,2013-03-29 06:03:00,
2013-03-28 23:23:00,41.0,-45.0,-100.00,SE,142,0.0,7.0,0,0.00,,,-99.99,0.000000,,2013-03-29 06:23:00,
2013-03-28 23:32:00,41.0,-45.0,-100.00,SE,142,0.0,7.0,0,0.00,,,-99.99,0.000000,,2013-03-29 06:32:00,
2013-03-28 23:42:00,41.0,-99.9,-100.00,SE,142,0.0,7.0,0,0.00,,,-99.99,0.000000,,2013-03-29 06:42:00,
2013-03-28 23:52:00,41.0,-99.9,-100.00,SE,142,0.0,7.0,0,0.00,,,-99.99,0.000000,,2013-03-29 06:52:00,